Time;durP1;ratioP1;P1;durP2;ratioP2;P2;SDS_P1;SDS_P2;PMS_P1;PMS_P2;Temp;Humidity;BMP_temperature;BMP_pressure;BME280_temperature;BME280_humidity;BME280_pressure;Samples;Min_cycle;Max_cycle;Signal;HPM_P1;HPM_P2
2023/08/04 00:04:21;;;;;;;17.20;13.13;;;23.90;91.90;;;;;;5065260;28;20129;-72
2023/08/04 00:11:38;;;;;;;16.25;13.05;;;23.80;92.00;;;;;;4992350;28;20045;-71
2023/08/04 00:14:33;;;;;;;18.30;13.40;;;23.90;92.00;;;;;;4992221;28;20135;-73
2023/08/04 00:17:03;;;;;;;14.68;12.90;;;23.80;92.20;;;;;;5004781;28;20042;-74
2023/08/04 00:19:29;;;;;;;17.13;12.90;;;23.80;92.00;;;;;;5003753;28;20088;-72
2023/08/04 00:21:56;;;;;;;15.95;13.20;;;23.80;92.10;;;;;;5001706;28;20041;-74
2023/08/04 00:24:22;;;;;;;16.65;13.48;;;23.80;92.10;;;;;;5002219;28;20034;-71
2023/08/04 00:26:48;;;;;;;18.13;13.77;;;23.80;92.10;;;;;;5001583;28;20025;-71
2023/08/04 00:29:15;;;;;;;14.60;13.05;;;23.80;92.00;;;;;;5001881;28;20842;-73
2023/08/04 00:31:41;;;;;;;17.13;13.35;;;23.70;92.20;;;;;;5001673;28;20045;-72
2023/08/04 00:34:07;;;;;;;17.63;13.40;;;23.70;92.40;;;;;;5002072;28;20034;-72
2023/08/04 00:36:35;;;;;;;16.08;13.68;;;23.60;92.50;;;;;;5001846;28;20437;-70
2023/08/04 00:39:03;;;;;;;15.93;13.40;;;23.60;92.60;;;;;;4986225;28;20429;-70
2023/08/04 00:41:29;;;;;;;20.73;14.07;;;23.60;92.70;;;;;;5048695;28;20413;-72
2023/08/04 00:43:58;;;;;;;17.45;12.93;;;23.50;92.80;;;;;;5064732;28;20077;-72
2023/08/04 00:46:26;;;;;;;17.02;13.60;;;23.50;92.80;;;;;;5066939;28;20497;-72
2023/08/04 00:48:53;;;;;;;14.13;12.55;;;23.60;93.00;;;;;;5063022;28;20033;-72
2023/08/04 00:51:19;;;;;;;17.67;13.15;;;23.50;92.80;;;;;;5062478;28;20407;-72
2023/08/04 00:53:46;;;;;;;16.27;12.98;;;23.60;92.90;;;;;;5064860;28;20534;-68
2023/08/04 00:56:12;;;;;;;15.73;13.40;;;23.60;92.70;;;;;;5063563;28;20142;-68
2023/08/04 00:58:38;;;;;;;18.52;13.82;;;23.50;92.80;;;;;;5064323;28;20403;-69
2023/08/04 01:01:04;;;;;;;19.65;13.20;;;23.40;92.80;;;;;;5064724;28;20032;-68
2023/08/04 01:03:30;;;;;;;17.52;13.73;;;23.40;92.90;;;;;;5066604;28;20028;-68
2023/08/04 01:06:38;;;;;;;16.10;13.52;;;23.50;92.80;;;;;;5063630;28;20112;-69
2023/08/04 01:09:16;;;;;;;15.27;13.68;;;23.50;92.80;;;;;;5062184;28;20043;-69
2023/08/04 01:11:55;;;;;;;16.65;13.35;;;23.40;92.90;;;;;;5063854;28;20185;-69
2023/08/04 01:14:23;;;;;;;18.70;13.43;;;23.40;92.90;;;;;;5064123;28;20078;-69
2023/08/04 01:16:49;;;;;;;19.60;14.10;;;23.30;93.00;;;;;;5067791;28;20036;-69
2023/08/04 01:19:16;;;;;;;15.15;13.10;;;23.40;93.00;;;;;;5066057;28;20098;-69
2023/08/04 01:21:43;;;;;;;16.85;14.55;;;23.40;92.80;;;;;;5063561;28;20033;-69
2023/08/04 01:24:10;;;;;;;19.00;16.20;;;23.50;92.80;;;;;;5062567;28;20031;-69
2023/08/04 01:26:41;;;;;;;17.80;15.90;;;23.40;92.90;;;;;;5062193;28;20063;-69
2023/08/04 01:29:09;;;;;;;19.35;15.23;;;23.30;93.10;;;;;;5060648;28;20292;-68
2023/08/04 01:31:37;;;;;;;18.55;15.07;;;23.30;93.00;;;;;;5066660;28;20041;-68
2023/08/04 01:34:03;;;;;;;17.58;14.80;;;23.30;93.10;;;;;;5064783;28;20127;-67
2023/08/04 01:36:29;;;;;;;17.02;14.52;;;23.20;93.30;;;;;;5062706;28;20070;-68
2023/08/04 01:38:56;;;;;;;16.35;14.63;;;23.20;93.10;;;;;;5062634;28;20068;-68
2023/08/04 01:41:22;;;;;;;17.10;14.68;;;23.30;93.10;;;;;;5063398;28;20072;-69
2023/08/04 01:43:48;;;;;;;20.67;14.60;;;23.30;93.10;;;;;;5062173;28;20037;-68
2023/08/04 01:46:14;;;;;;;16.52;14.45;;;23.20;93.30;;;;;;5061340;28;20056;-68
2023/08/04 01:48:40;;;;;;;14.73;13.25;;;23.20;93.30;;;;;;5061980;28;20541;-69
2023/08/04 01:51:07;;;;;;;15.65;13.32;;;23.30;93.20;;;;;;5066782;28;20078;-69
2023/08/04 01:53:33;;;;;;;16.35;14.30;;;23.20;93.30;;;;;;5065239;28;20076;-69
2023/08/04 01:56:00;;;;;;;16.08;13.88;;;23.20;93.50;;;;;;5062438;28;20722;-68
2023/08/04 01:58:25;;;;;;;15.02;13.50;;;23.10;93.50;;;;;;5078003;28;20044;-68
2023/08/04 02:00:51;;;;;;;16.05;13.25;;;23.20;93.50;;;;;;5062165;28;20542;-67
2023/08/04 02:03:17;;;;;;;15.65;13.65;;;23.20;93.50;;;;;;5066917;28;20562;-68
2023/08/04 02:05:48;;;;;;;14.77;13.32;;;23.20;93.40;;;;;;5066648;28;20028;-68
2023/08/04 02:08:14;;;;;;;17.05;14.45;;;23.20;93.50;;;;;;5063578;28;20037;-68
2023/08/04 02:10:50;;;;;;;14.98;13.45;;;23.20;93.40;;;;;;5065403;28;20036;-68
2023/08/04 02:13:16;;;;;;;17.13;13.55;;;23.30;93.30;;;;;;5061505;28;20311;-71
2023/08/04 02:15:43;;;;;;;16.50;13.25;;;23.30;93.40;;;;;;5061159;28;20139;-71
2023/08/04 02:18:09;;;;;;;16.33;13.60;;;23.30;93.40;;;;;;5061275;28;20021;-73
2023/08/04 02:20:35;;;;;;;17.38;13.05;;;23.20;93.60;;;;;;5062236;28;20416;-71
2023/08/04 02:23:02;;;;;;;17.27;13.82;;;23.20;93.40;;;;;;5061516;28;20029;-72
2023/08/04 02:25:28;;;;;;;15.18;13.57;;;23.20;93.40;;;;;;5061668;28;20047;-68
2023/08/04 02:27:53;;;;;;;16.65;13.50;;;23.30;93.40;;;;;;5076030;28;20036;-69
2023/08/04 02:30:19;;;;;;;16.90;13.65;;;23.30;93.30;;;;;;5060770;28;20040;-68
2023/08/04 02:32:45;;;;;;;16.40;13.52;;;23.30;93.30;;;;;;5064274;28;20028;-68
2023/08/04 02:35:11;;;;;;;16.98;13.13;;;23.30;93.30;;;;;;5063226;28;20043;-68
2023/08/04 02:37:37;;;;;;;14.80;12.93;;;23.40;93.10;;;;;;5063595;28;20124;-68
2023/08/04 02:40:03;;;;;;;16.48;13.07;;;23.50;93.10;;;;;;5060972;28;20033;-68
2023/08/04 02:42:29;;;;;;;19.92;13.05;;;23.40;93.10;;;;;;5063438;28;20033;-68
2023/08/04 02:44:55;;;;;;;16.13;13.55;;;23.40;93.10;;;;;;5067358;28;20044;-68
2023/08/04 02:47:22;;;;;;;15.85;12.55;;;23.40;93.10;;;;;;5060888;28;20443;-69
2023/08/04 02:49:48;;;;;;;16.40;13.80;;;23.50;93.00;;;;;;5061471;28;20133;-69
2023/08/04 02:52:16;;;;;;;17.20;12.73;;;23.40;93.10;;;;;;5063681;28;20493;-69
2023/08/04 02:54:43;;;;;;;14.25;12.13;;;23.40;93.20;;;;;;5060396;28;20055;-68
2023/08/04 02:57:09;;;;;;;14.68;13.25;;;23.40;93.10;;;;;;5062620;28;20574;-68
2023/08/04 02:59:36;;;;;;;16.05;12.63;;;23.40;93.10;;;;;;5066122;28;20128;-68
2023/08/04 03:02:02;;;;;;;15.57;12.68;;;23.40;93.10;;;;;;5061332;28;20032;-68
2023/08/04 03:04:28;;;;;;;15.38;12.75;;;23.40;93.10;;;;;;5062169;28;20032;-68
2023/08/04 03:06:54;;;;;;;18.63;13.73;;;23.50;93.10;;;;;;5066170;28;20040;-68
2023/08/04 03:09:20;;;;;;;17.25;12.98;;;23.40;93.20;;;;;;5069809;28;20032;-68
2023/08/04 03:11:46;;;;;;;15.27;12.00;;;23.40;93.20;;;;;;5068263;28;20032;-69
2023/08/04 03:14:11;;;;;;;17.02;12.95;;;23.50;93.10;;;;;;5066794;28;20048;-69
2023/08/04 03:16:37;;;;;;;14.90;13.30;;;23.50;93.10;;;;;;5067285;28;20124;-70
2023/08/04 03:19:04;;;;;;;16.73;13.27;;;23.40;93.00;;;;;;5066120;28;20040;-73
2023/08/04 03:21:30;;;;;;;16.55;13.52;;;23.50;93.10;;;;;;5065403;28;20037;-73
2023/08/04 03:23:57;;;;;;;14.48;12.88;;;23.50;93.10;;;;;;5067490;28;20028;-73
2023/08/04 03:26:23;;;;;;;15.85;13.32;;;23.40;93.00;;;;;;5067009;28;20059;-74
2023/08/04 03:28:49;;;;;;;17.98;13.73;;;23.50;93.30;;;;;;5070156;28;20490;-73
2023/08/04 03:31:15;;;;;;;16.05;13.32;;;23.50;92.90;;;;;;5062896;28;20139;-70
2023/08/04 03:33:41;;;;;;;14.20;12.45;;;23.50;92.90;;;;;;5066505;28;20566;-70
2023/08/04 03:36:08;;;;;;;15.80;13.50;;;23.60;92.80;;;;;;5065530;28;20032;-70
2023/08/04 03:38:34;;;;;;;16.40;13.73;;;23.60;92.80;;;;;;5067784;28;20029;-70
2023/08/04 03:41:00;;;;;;;17.55;13.30;;;23.60;92.70;;;;;;5062577;28;20047;-69
2023/08/04 03:43:26;;;;;;;14.50;13.00;;;23.60;92.70;;;;;;5066566;28;20043;-70
2023/08/04 03:45:52;;;;;;;14.10;12.63;;;23.60;92.90;;;;;;5065860;28;20062;-70
2023/08/04 03:48:18;;;;;;;15.50;12.52;;;23.70;92.90;;;;;;5065290;28;20037;-70
2023/08/04 03:50:44;;;;;;;15.55;13.10;;;23.70;92.90;;;;;;5065866;28;20032;-70
2023/08/04 03:53:10;;;;;;;15.60;12.40;;;23.70;92.80;;;;;;5065625;28;20067;-74
2023/08/04 03:55:36;;;;;;;14.15;12.68;;;23.80;92.60;;;;;;5067918;28;20465;-75
2023/08/04 03:58:01;;;;;;;17.45;13.32;;;23.90;92.50;;;;;;5062039;28;20028;-74
2023/08/04 04:00:27;;;;;;;19.27;13.27;;;23.90;92.50;;;;;;5065645;28;20059;-75
2023/08/04 04:02:53;;;;;;;14.15;12.35;;;23.90;92.30;;;;;;5065391;28;20017;-75
2023/08/04 04:05:19;;;;;;;15.35;12.45;;;23.90;92.20;;;;;;5063053;28;20055;-75
2023/08/04 04:07:45;;;;;;;13.93;11.70;;;24.00;92.20;;;;;;5066051;28;20040;-75
2023/08/04 04:10:11;;;;;;;15.23;12.07;;;24.10;92.00;;;;;;5063042;28;20032;-74
2023/08/04 04:12:37;;;;;;;15.77;12.10;;;24.30;91.80;;;;;;5063485;28;20041;-73
2023/08/04 04:15:07;;;;;;;14.25;12.10;;;24.50;91.50;;;;;;5066830;28;20125;-75
2023/08/04 04:17:34;;;;;;;13.07;11.75;;;24.60;91.30;;;;;;5063113;28;20143;-75
2023/08/04 04:20:00;;;;;;;13.27;11.95;;;24.80;91.10;;;;;;5062430;28;20037;-72
2023/08/04 04:22:26;;;;;;;11.75;10.13;;;24.90;90.90;;;;;;5064430;28;20515;-70
2023/08/04 04:24:51;;;;;;;12.48;11.18;;;25.00;90.70;;;;;;5062085;28;20064;-69
2023/08/04 04:27:17;;;;;;;12.77;11.00;;;25.10;90.40;;;;;;5065874;28;20111;-69
2023/08/04 04:29:43;;;;;;;11.77;9.90;;;25.30;90.30;;;;;;5064515;28;20028;-70
2023/08/04 04:32:09;;;;;;;11.93;10.73;;;25.50;90.10;;;;;;5063147;28;20040;-73
2023/08/04 04:34:35;;;;;;;12.35;10.18;;;25.60;89.80;;;;;;5063435;28;20208;-73
2023/08/04 04:37:01;;;;;;;16.80;10.63;;;25.70;89.50;;;;;;5067397;28;20108;-76
2023/08/04 04:39:27;;;;;;;13.43;10.55;;;25.90;89.10;;;;;;5066534;28;20036;-75
2023/08/04 04:41:53;;;;;;;12.65;9.52;;;26.00;88.60;;;;;;5064704;28;20044;-75
2023/08/04 04:44:19;;;;;;;14.10;10.63;;;26.20;88.20;;;;;;5068320;28;20036;-77
2023/08/04 04:46:45;;;;;;;13.95;10.13;;;26.40;87.80;;;;;;5062395;28;20086;-75
2023/08/04 04:49:12;;;;;;;11.77;10.55;;;26.50;86.70;;;;;;5062296;28;20044;-76
2023/08/04 04:51:38;;;;;;;10.27;9.13;;;26.60;86.60;;;;;;5067045;28;20048;-75
2023/08/04 04:54:04;;;;;;;12.02;10.40;;;26.70;86.60;;;;;;5064276;28;20458;-76
2023/08/04 04:56:30;;;;;;;11.63;9.63;;;26.90;85.40;;;;;;5064678;28;20132;-76
2023/08/04 04:58:56;;;;;;;10.38;9.00;;;27.20;85.00;;;;;;5065134;28;20132;-75
2023/08/04 05:01:22;;;;;;;8.80;8.00;;;27.40;84.30;;;;;;5063420;28;20562;-73
2023/08/04 05:03:48;;;;;;;9.38;8.40;;;27.70;84.00;;;;;;5064552;28;20036;-72
2023/08/04 05:06:13;;;;;;;11.35;8.77;;;27.90;83.10;;;;;;5065437;28;20028;-71
2023/08/04 05:08:39;;;;;;;8.85;8.05;;;28.00;82.20;;;;;;5065752;28;20573;-71
2023/08/04 05:11:05;;;;;;;10.50;7.97;;;28.20;82.00;;;;;;5067060;28;20036;-72
2023/08/04 05:13:32;;;;;;;9.52;8.43;;;28.30;81.50;;;;;;5063974;28;20986;-72
2023/08/04 05:15:57;;;;;;;8.98;8.00;;;28.50;80.80;;;;;;5063421;28;20029;-73
2023/08/04 05:18:24;;;;;;;9.55;8.18;;;28.70;80.50;;;;;;5061988;28;20082;-73
2023/08/04 05:20:50;;;;;;;8.02;7.22;;;28.80;80.00;;;;;;5066280;28;20032;-73
2023/08/04 05:23:16;;;;;;;11.30;8.38;;;28.90;79.40;;;;;;5064568;28;20037;-73
2023/08/04 05:25:42;;;;;;;10.52;8.38;;;29.10;78.60;;;;;;5064923;28;20388;-74
2023/08/04 05:28:23;;;;;;;11.35;8.23;;;29.20;78.60;;;;;;5062503;28;20073;-75
2023/08/04 05:30:57;;;;;;;8.70;7.72;;;29.30;77.70;;;;;;5066196;28;20086;-73
2023/08/04 05:33:24;;;;;;;9.80;7.80;;;29.50;77.40;;;;;;5064276;28;20035;-77
2023/08/04 05:35:51;;;;;;;9.18;7.43;;;29.70;77.20;;;;;;5064321;28;20037;-76
2023/08/04 05:38:17;;;;;;;8.57;7.68;;;29.80;76.70;;;;;;5064703;28;20063;-75
2023/08/04 05:40:45;;;;;;;8.60;7.75;;;29.90;76.20;;;;;;5063371;28;20119;-74
2023/08/04 05:43:12;;;;;;;9.10;8.10;;;30.00;76.30;;;;;;5061528;28;20052;-71
2023/08/04 05:45:41;;;;;;;10.00;9.00;;;30.00;75.10;;;;;;5061889;28;20038;-73
2023/08/04 05:48:07;;;;;;;11.70;8.43;;;29.80;75.60;;;;;;5064061;28;20663;-73
2023/08/04 05:50:34;;;;;;;9.13;8.23;;;29.80;76.00;;;;;;5065648;28;20094;-73
2023/08/04 05:53:00;;;;;;;12.07;9.32;;;29.90;76.10;;;;;;5063918;28;20472;-73
2023/08/04 05:55:26;;;;;;;9.05;8.15;;;29.80;75.20;;;;;;5061330;28;20032;-73
2023/08/04 05:57:52;;;;;;;9.27;7.80;;;29.90;75.00;;;;;;5062457;28;20032;-73
2023/08/04 06:00:18;;;;;;;8.95;8.13;;;29.90;75.40;;;;;;5061852;28;20112;-74
2023/08/04 06:02:45;;;;;;;10.48;8.07;;;30.00;75.20;;;;;;5061682;28;20887;-71
2023/08/04 06:05:12;;;;;;;8.73;7.85;;;30.10;75.30;;;;;;5063782;28;20037;-71
2023/08/04 06:07:39;;;;;;;8.95;7.30;;;29.90;75.40;;;;;;5060698;28;20403;-74
2023/08/04 06:10:06;;;;;;;10.25;8.07;;;30.00;75.40;;;;;;5064787;28;20044;-73
2023/08/04 06:12:39;;;;;;;8.57;7.65;;;30.00;75.30;;;;;;5062458;28;20044;-75
2023/08/04 06:15:06;;;;;;;8.68;7.68;;;30.00;75.20;;;;;;5064932;28;20156;-74
2023/08/04 06:17:33;;;;;;;9.88;7.95;;;30.10;75.70;;;;;;5062323;28;20040;-73
2023/08/04 06:20:00;;;;;;;8.27;7.20;;;30.10;74.90;;;;;;5064745;28;20040;-75
2023/08/04 06:22:26;;;;;;;11.02;8.25;;;30.20;74.70;;;;;;5062421;28;20553;-75
2023/08/04 06:24:53;;;;;;;9.38;7.82;;;30.30;74.70;;;;;;5060479;28;20070;-72
2023/08/04 06:27:19;;;;;;;7.82;7.18;;;30.20;74.60;;;;;;5066783;28;20036;-74
2023/08/04 06:29:46;;;;;;;9.32;8.40;;;30.30;74.30;;;;;;5060249;28;20078;-72
2023/08/04 06:32:12;;;;;;;12.20;8.80;;;30.40;74.40;;;;;;5060372;28;20573;-70
2023/08/04 06:34:38;;;;;;;8.48;7.60;;;30.00;73.80;;;;;;5065910;28;20043;-71
2023/08/04 06:37:04;;;;;;;8.82;8.02;;;30.20;74.50;;;;;;5065913;28;20412;-72
2023/08/04 06:39:30;;;;;;;9.68;8.00;;;30.30;74.40;;;;;;5064031;28;20030;-72
2023/08/04 06:41:56;;;;;;;8.35;7.55;;;30.30;74.20;;;;;;5068103;28;20487;-71
2023/08/04 06:44:22;;;;;;;8.40;7.60;;;30.30;74.10;;;;;;5065394;28;20177;-71
2023/08/04 06:46:48;;;;;;;10.68;7.97;;;30.30;74.10;;;;;;5064523;28;20067;-71
2023/08/04 06:49:14;;;;;;;10.30;7.72;;;30.20;74.40;;;;;;5069309;28;20516;-69
2023/08/04 06:51:40;;;;;;;10.82;8.00;;;30.30;74.40;;;;;;5066218;28;20036;-70
2023/08/04 06:54:06;;;;;;;8.90;8.00;;;30.30;74.20;;;;;;5066063;28;20075;-71
2023/08/04 06:56:32;;;;;;;8.90;7.97;;;30.30;74.10;;;;;;5061828;28;20710;-70
2023/08/04 06:58:58;;;;;;;8.45;7.68;;;30.30;74.00;;;;;;5076078;28;20040;-71
2023/08/04 07:01:24;;;;;;;8.10;7.40;;;30.30;73.80;;;;;;5071402;28;20130;-70
2023/08/04 07:03:50;;;;;;;8.00;7.28;;;30.30;73.90;;;;;;5068438;28;20126;-69
2023/08/04 07:06:15;;;;;;;9.55;7.55;;;30.30;73.70;;;;;;5067007;28;20043;-72
2023/08/04 07:08:41;;;;;;;7.68;7.07;;;30.30;73.60;;;;;;5063032;28;20031;-76
2023/08/04 07:11:15;;;;;;;7.93;7.10;;;30.30;73.50;;;;;;5065941;28;20037;-76
2023/08/04 07:13:42;;;;;;;9.75;7.72;;;30.40;73.50;;;;;;5068992;28;21433;-71
2023/08/04 07:16:10;;;;;;;8.57;7.50;;;30.40;73.30;;;;;;5067120;28;20032;-72
2023/08/04 07:18:36;;;;;;;7.88;7.15;;;30.30;73.00;;;;;;5067728;28;20048;-72
2023/08/04 07:21:10;;;;;;;7.93;6.85;;;30.40;73.80;;;;;;5067309;28;20028;-72
2023/08/04 07:23:40;;;;;;;8.27;7.50;;;30.40;73.40;;;;;;5064498;28;20095;-77
2023/08/04 07:26:08;;;;;;;8.25;7.45;;;30.50;74.00;;;;;;5064087;28;20036;-77
2023/08/04 07:28:36;;;;;;;8.18;7.38;;;30.50;73.40;;;;;;5055051;28;20039;-80
2023/08/04 07:31:10;;;;;;;8.77;7.20;;;30.50;73.30;;;;;;5068431;28;20071;-76
2023/08/04 07:33:37;;;;;;;7.63;6.78;;;30.50;73.50;;;;;;5066158;28;20060;-74
2023/08/04 07:36:07;;;;;;;9.52;6.97;;;30.30;70.70;;;;;;5067213;28;20510;-74
2023/08/04 07:38:33;;;;;;;8.15;7.40;;;30.30;73.10;;;;;;5066585;28;20521;-73
2023/08/04 07:41:08;;;;;;;8.82;7.10;;;30.30;73.80;;;;;;5067454;28;20124;-74
2023/08/04 07:43:34;;;;;;;7.72;6.93;;;30.30;74.00;;;;;;5067011;28;20040;-76
2023/08/04 07:46:01;;;;;;;11.48;7.93;;;30.30;74.40;;;;;;5065325;28;20531;-75
2023/08/04 07:48:29;;;;;;;10.45;6.55;;;30.30;74.20;;;;;;5066073;28;20515;-72
2023/08/04 07:50:55;;;;;;;7.68;6.63;;;30.30;74.30;;;;;;5063839;28;20060;-73
2023/08/04 07:53:21;;;;;;;6.88;6.28;;;30.30;74.20;;;;;;5064509;28;20787;-72
2023/08/04 07:55:55;;;;;;;7.60;6.40;;;30.30;74.30;;;;;;5068438;28;20024;-73
2023/08/04 07:58:21;;;;;;;7.13;6.43;;;30.30;73.00;;;;;;5064665;28;20044;-73
2023/08/04 08:00:47;;;;;;;8.15;6.07;;;30.30;73.30;;;;;;5063969;28;20052;-74
2023/08/04 08:03:13;;;;;;;8.82;6.53;;;30.20;71.80;;;;;;5063829;28;20423;-74
2023/08/04 08:05:39;;;;;;;9.57;6.55;;;30.10;73.70;;;;;;5066027;28;20317;-72
2023/08/04 08:08:04;;;;;;;6.75;6.20;;;30.10;71.60;;;;;;5066455;28;20110;-72
2023/08/04 08:10:30;;;;;;;7.10;6.32;;;30.10;72.00;;;;;;5065215;28;20033;-73
2023/08/04 08:12:56;;;;;;;6.60;6.10;;;30.00;72.20;;;;;;5066677;28;20079;-73
2023/08/04 08:15:22;;;;;;;6.85;6.25;;;30.00;72.40;;;;;;5064082;28;20028;-77
2023/08/04 08:17:49;;;;;;;7.07;6.53;;;30.10;74.10;;;;;;5064581;28;20829;-83
2023/08/04 08:20:25;;;;;;;6.93;6.20;;;30.00;73.50;;;;;;5071367;28;20040;-84
2023/08/04 08:23:00;;;;;;;6.97;6.32;;;30.10;72.70;;;;;;5063584;28;20048;-84
2023/08/04 08:25:26;;;;;;;7.13;6.53;;;30.00;72.20;;;;;;5063160;28;20043;-82
2023/08/04 08:27:52;;;;;;;8.60;6.22;;;29.80;69.70;;;;;;5066154;28;20028;-79
2023/08/04 08:30:18;;;;;;;6.47;5.88;;;29.80;70.30;;;;;;5066755;28;20024;-82
2023/08/04 08:32:44;;;;;;;6.38;5.75;;;29.90;73.20;;;;;;5066514;28;20044;-82
2023/08/04 08:35:10;;;;;;;6.88;6.00;;;29.90;73.50;;;;;;5065449;28;20159;-80
2023/08/04 08:37:36;;;;;;;7.43;6.13;;;29.90;73.10;;;;;;5063084;28;20083;-81
2023/08/04 08:40:03;;;;;;;6.05;5.55;;;29.90;72.20;;;;;;5065171;28;20036;-80
2023/08/04 08:42:29;;;;;;;6.15;5.55;;;29.90;70.50;;;;;;5063318;28;20343;-73
2023/08/04 08:44:54;;;;;;;6.07;5.55;;;30.00;72.50;;;;;;5065926;28;20294;-74
2023/08/04 08:47:23;;;;;;;5.95;5.35;;;30.00;72.70;;;;;;5063427;28;20060;-74
2023/08/04 08:49:55;;;;;;;6.13;5.53;;;29.80;68.40;;;;;;5061819;28;20036;-74
2023/08/04 08:52:25;;;;;;;7.68;5.57;;;29.80;71.10;;;;;;5064866;28;20473;-74
2023/08/04 08:54:52;;;;;;;5.82;5.32;;;29.80;68.20;;;;;;5063162;28;20140;-74
2023/08/04 08:57:18;;;;;;;6.20;5.57;;;29.80;70.10;;;;;;5063610;28;20446;-74
2023/08/04 08:59:44;;;;;;;7.55;5.80;;;29.80;70.80;;;;;;5066943;28;20463;-74
2023/08/04 09:02:13;;;;;;;5.50;5.07;;;29.80;71.20;;;;;;5067858;28;20032;-74
2023/08/04 09:04:40;;;;;;;6.32;5.72;;;29.90;71.40;;;;;;5064408;28;20499;-74
2023/08/04 09:07:06;;;;;;;5.78;5.25;;;29.90;70.40;;;;;;5064566;28;20108;-78
2023/08/04 09:09:35;;;;;;;6.20;5.55;;;29.90;72.20;;;;;;5061183;28;20065;-80
2023/08/04 09:12:02;;;;;;;5.05;4.68;;;29.90;72.10;;;;;;5063086;28;20039;-78
2023/08/04 09:14:47;;;;;;;5.20;4.80;;;29.80;68.40;;;;;;5063493;28;20382;-74
2023/08/04 09:17:38;;;;;;;5.35;4.95;;;29.80;67.80;;;;;;5061846;28;20040;-77
2023/08/04 09:20:09;;;;;;;6.30;4.95;;;29.80;67.70;;;;;;5068174;28;20028;-72
2023/08/04 09:22:43;;;;;;;5.43;4.93;;;29.80;68.60;;;;;;5062740;28;20030;-72
2023/08/04 09:25:10;;;;;;;6.00;5.45;;;29.80;68.60;;;;;;5065849;28;20028;-71
2023/08/04 09:27:38;;;;;;;5.57;5.07;;;29.80;70.10;;;;;;5067946;28;20492;-72
2023/08/04 09:30:07;;;;;;;5.72;5.07;;;29.80;69.70;;;;;;5063665;28;20036;-72
2023/08/04 09:32:44;;;;;;;5.70;5.20;;;29.80;66.60;;;;;;5062157;28;20040;-71
2023/08/04 09:35:11;;;;;;;5.45;5.05;;;29.80;66.90;;;;;;5064036;28;20039;-71
2023/08/04 09:37:38;;;;;;;5.55;5.10;;;29.80;67.90;;;;;;5063571;28;20067;-75
2023/08/04 09:40:12;;;;;;;6.88;5.40;;;29.80;68.60;;;;;;5063743;28;20032;-70
2023/08/04 09:42:41;;;;;;;6.80;5.30;;;29.80;68.50;;;;;;5064560;28;20033;-77
2023/08/04 09:45:16;;;;;;;7.47;5.30;;;29.70;69.00;;;;;;5066299;28;20055;-73
2023/08/04 09:47:49;;;;;;;6.65;5.50;;;29.70;70.80;;;;;;5060737;28;20050;-76
2023/08/04 09:50:17;;;;;;;6.05;5.53;;;29.70;71.00;;;;;;5060550;28;20450;-75
2023/08/04 09:52:43;;;;;;;6.10;5.50;;;29.60;67.10;;;;;;5062419;28;20064;-76
2023/08/04 09:55:09;;;;;;;5.75;5.20;;;29.60;68.40;;;;;;5061000;28;20076;-75
2023/08/04 09:57:35;;;;;;;6.47;5.43;;;29.60;69.70;;;;;;5064633;28;20059;-76
2023/08/04 10:00:05;;;;;;;7.93;5.03;;;29.60;68.70;;;;;;5061761;28;20143;-79
2023/08/04 10:02:36;;;;;;;5.50;5.00;;;29.60;67.30;;;;;;5066797;28;20037;-79
2023/08/04 10:05:03;;;;;;;6.88;5.00;;;29.60;67.30;;;;;;5064132;28;20044;-79
2023/08/04 10:07:34;;;;;;;6.05;4.80;;;29.60;67.10;;;;;;5061178;28;20037;-78
2023/08/04 10:10:14;;;;;;;4.40;4.00;;;29.70;65.50;;;;;;5060608;28;20109;-78
2023/08/04 10:12:40;;;;;;;4.15;3.75;;;29.60;64.40;;;;;;5061328;28;20077;-75
2023/08/04 10:15:08;;;;;;;4.75;4.35;;;29.70;61.90;;;;;;5064402;28;20037;-75
2023/08/04 10:17:34;;;;;;;4.63;4.25;;;29.60;63.50;;;;;;5066552;28;20061;-75
2023/08/04 10:20:05;;;;;;;4.68;4.28;;;29.60;63.00;;;;;;5067936;28;20040;-75
2023/08/04 10:22:32;;;;;;;5.20;4.45;;;29.60;63.00;;;;;;5065816;28;20676;-75
2023/08/04 10:24:58;;;;;;;5.55;4.38;;;29.60;64.70;;;;;;5072286;28;20060;-74
2023/08/04 10:27:24;;;;;;;4.50;4.10;;;29.60;64.10;;;;;;5065260;28;20069;-76
2023/08/04 10:30:24;;;;;;;4.35;3.92;;;29.60;63.60;;;;;;5054537;28;20135;-75
2023/08/04 10:32:50;;;;;;;5.45;4.20;;;29.60;62.80;;;;;;5005200;28;20050;-74
2023/08/04 10:35:19;;;;;;;5.43;4.40;;;29.50;61.70;;;;;;5005769;28;20436;-75
2023/08/04 10:37:48;;;;;;;4.70;4.30;;;29.50;61.40;;;;;;5005665;28;20496;-76
2023/08/04 10:40:30;;;;;;;4.30;3.92;;;29.50;62.10;;;;;;5004790;28;20121;-75
2023/08/04 10:42:58;;;;;;;4.88;4.28;;;29.50;62.00;;;;;;5005449;28;20037;-74
2023/08/04 10:46:05;;;;;;;4.97;4.30;;;29.50;62.40;;;;;;4989180;28;20033;-74
2023/08/04 10:48:36;;;;;;;4.63;4.22;;;29.50;62.30;;;;;;4988985;28;20049;-74
2023/08/04 10:51:02;;;;;;;5.13;4.05;;;29.50;61.20;;;;;;5005613;28;20033;-75
2023/08/04 10:53:29;;;;;;;6.38;4.55;;;29.50;61.40;;;;;;5005347;28;20049;-76
2023/08/04 10:55:57;;;;;;;5.95;3.92;;;29.50;61.90;;;;;;5005351;28;20636;-74
2023/08/04 10:58:24;;;;;;;4.65;4.25;;;29.50;61.40;;;;;;5005013;28;20521;-75
2023/08/04 11:00:52;;;;;;;7.88;4.32;;;29.50;60.20;;;;;;5005236;28;20129;-74
2023/08/04 11:03:36;;;;;;;4.28;3.97;;;29.40;59.40;;;;;;5004267;28;20038;-74
2023/08/04 11:06:04;;;;;;;5.00;3.90;;;29.40;59.30;;;;;;5005798;28;20060;-73
2023/08/04 11:08:30;;;;;;;6.00;3.80;;;29.40;60.30;;;;;;5038319;28;20090;-75
2023/08/04 11:10:57;;;;;;;5.65;3.72;;;29.40;61.50;;;;;;5063903;28;20051;-78
2023/08/04 11:13:25;;;;;;;4.78;3.85;;;29.40;59.20;;;;;;5065819;28;20062;-73
2023/08/04 11:15:53;;;;;;;3.63;3.33;;;29.40;59.20;;;;;;5066382;28;20655;-76
2023/08/04 11:18:29;;;;;;;3.70;3.40;;;29.40;59.50;;;;;;5066383;28;20024;-75
2023/08/04 11:21:00;;;;;;;3.42;3.13;;;29.40;60.00;;;;;;5068173;28;20519;-77
2023/08/04 11:23:28;;;;;;;4.68;3.35;;;29.40;60.20;;;;;;5066985;28;20032;-82
2023/08/04 11:25:55;;;;;;;4.45;3.20;;;29.40;58.20;;;;;;5068645;28;20158;-79
2023/08/04 11:28:22;;;;;;;4.13;3.05;;;29.40;58.60;;;;;;5066651;28;20540;-77
2023/08/04 11:30:48;;;;;;;4.80;2.95;;;29.40;57.40;;;;;;5066435;28;20028;-72
2023/08/04 11:33:18;;;;;;;5.47;3.08;;;29.30;57.20;;;;;;5068580;28;20059;-75
2023/08/04 11:35:45;;;;;;;3.63;3.25;;;29.30;57.90;;;;;;5067064;28;20020;-74
2023/08/04 11:38:12;;;;;;;3.33;2.97;;;29.30;59.20;;;;;;5062363;28;20029;-73
2023/08/04 11:40:57;;;;;;;3.53;3.22;;;29.30;59.10;;;;;;5068941;28;20029;-75
2023/08/04 11:43:24;;;;;;;4.05;3.15;;;29.30;55.50;;;;;;5064333;28;20048;-74
2023/08/04 11:45:51;;;;;;;4.25;3.40;;;29.20;55.20;;;;;;5064596;28;20179;-78
2023/08/04 11:48:26;;;;;;;3.22;3.03;;;29.20;56.90;;;;;;5067031;28;20085;-77
2023/08/04 11:50:57;;;;;;;4.82;3.63;;;29.20;56.90;;;;;;5063956;28;20032;-78
2023/08/04 11:53:24;;;;;;;5.07;3.50;;;29.10;57.30;;;;;;5063793;28;20047;-77
2023/08/04 11:55:56;;;;;;;4.78;3.72;;;29.10;58.20;;;;;;5064952;28;20078;-75
2023/08/04 12:10:30;;;;;;;4.90;3.60;;;29.10;60.10;;;;;;4920090;29;20047;-77
2023/08/04 12:12:56;;;;;;;3.95;3.55;;;29.20;60.50;;;;;;4938988;29;20399;-77
2023/08/04 12:15:22;;;;;;;3.80;3.50;;;29.20;61.40;;;;;;4940854;29;20066;-75
2023/08/04 12:17:48;;;;;;;3.70;3.38;;;29.20;61.10;;;;;;4941464;29;20469;-75
2023/08/04 12:20:14;;;;;;;4.88;3.20;;;29.20;61.40;;;;;;4938622;29;20043;-76
2023/08/04 12:22:42;;;;;;;4.15;3.60;;;29.20;61.50;;;;;;4940592;29;20046;-76
2023/08/04 12:25:20;;;;;;;4.30;3.25;;;29.20;61.50;;;;;;4940936;29;20555;-79
2023/08/04 12:27:56;;;;;;;3.92;3.30;;;29.20;61.40;;;;;;4942152;29;20039;-77
2023/08/04 12:34:10;;;;;;;3.75;3.33;;;29.20;64.90;;;;;;4927100;28;20067;-78
2023/08/04 12:36:40;;;;;;;3.88;3.42;;;29.20;62.90;;;;;;4937322;28;20035;-76
2023/08/04 12:39:10;;;;;;;5.00;3.95;;;29.20;62.90;;;;;;4997838;28;20034;-76
2023/08/04 12:41:36;;;;;;;6.00;3.45;;;29.20;63.60;;;;;;5006793;28;20037;-73
2023/08/04 12:44:02;;;;;;;4.13;3.60;;;29.20;63.50;;;;;;5064985;28;20085;-76
2023/08/04 12:46:28;;;;;;;4.53;3.90;;;29.10;63.20;;;;;;5062233;28;20503;-74
2023/08/04 12:48:58;;;;;;;4.82;3.55;;;29.20;63.70;;;;;;5066401;28;20044;-75
2023/08/04 12:51:24;;;;;;;6.95;3.55;;;29.20;64.70;;;;;;5063793;28;20059;-75
2023/08/04 12:53:50;;;;;;;6.15;3.72;;;29.20;64.10;;;;;;5069920;28;20795;-74
2023/08/04 12:56:16;;;;;;;3.90;3.60;;;29.20;63.90;;;;;;5065650;28;20540;-73
2023/08/04 12:58:43;;;;;;;5.22;4.10;;;29.10;65.70;;;;;;5065430;28;20036;-77
2023/08/04 13:01:09;;;;;;;3.35;3.05;;;29.20;65.70;;;;;;5064359;28;20397;-73
2023/08/04 13:03:34;;;;;;;7.07;3.72;;;29.20;66.60;;;;;;5062764;28;20402;-73
2023/08/04 13:06:02;;;;;;;3.85;3.47;;;29.20;65.70;;;;;;5065897;28;20029;-77